createdAt,value
2018-08-13T00:01:59.176Z,100685.65
2018-08-13T00:04:28.082Z,100672.62
2018-08-13T00:06:57.024Z,100672.53
2018-08-13T00:09:31.233Z,100669.62
2018-08-13T00:12:00.144Z,100667.51
2018-08-13T00:14:29.039Z,100664.86
2018-08-13T00:16:57.997Z,100660.84
2018-08-13T00:19:26.902Z,100650.56
2018-08-13T00:21:55.878Z,100647.73
2018-08-13T00:24:30.355Z,100634.97
2018-08-13T00:27:04.782Z,100628.98
2018-08-13T00:29:33.699Z,100620.46
2018-08-13T00:32:02.624Z,100620.70
2018-08-13T00:34:31.529Z,100615.84
2018-08-13T00:37:00.423Z,100614.84
2018-08-13T00:39:31.487Z,100619.37
2018-08-13T00:42:00.392Z,100617.27
2018-08-13T00:44:29.291Z,100612.16
2018-08-13T00:46:58.238Z,100618.06
2018-08-13T00:49:27.123Z,100617.64
2018-08-13T00:51:56.024Z,100618.04
2018-08-13T00:54:24.925Z,100610.01
2018-08-13T00:56:53.879Z,100609.43
2018-08-13T00:59:22.824Z,100603.28
2018-08-13T01:01:51.720Z,100601.22
2018-08-13T01:04:20.651Z,100598.34
2018-08-13T01:06:49.642Z,100599.47
2018-08-13T01:09:18.549Z,100595.10
2018-08-13T01:11:47.447Z,100600.73
2018-08-13T01:14:16.338Z,100591.95
2018-08-13T01:16:45.264Z,100595.03
2018-08-13T01:19:14.227Z,100594.55
2018-08-13T01:21:43.187Z,100592.00
2018-08-13T01:24:12.106Z,100598.83
2018-08-13T01:26:41.062Z,100596.59
2018-08-13T01:29:09.939Z,100584.95
2018-08-13T01:31:38.800Z,100585.56
2018-08-13T01:34:07.671Z,100581.56
2018-08-13T01:36:36.583Z,100571.30
2018-08-13T01:39:08.074Z,100571.23
2018-08-13T01:41:37.060Z,100565.52
2018-08-13T01:44:06.327Z,100563.17
2018-08-13T01:46:35.519Z,100566.63
2018-08-13T01:49:04.582Z,100565.14
2018-08-13T01:51:33.527Z,100560.87
2018-08-13T01:54:02.471Z,100562.09
2018-08-13T01:56:31.448Z,100556.97
2018-08-13T01:59:00.399Z,100551.58
2018-08-13T02:01:29.370Z,100543.09
2018-08-13T02:03:58.331Z,100546.88
2018-08-13T02:06:27.299Z,100535.51
2018-08-13T02:08:56.225Z,100519.05
2018-08-13T02:11:25.207Z,100515.47
2018-08-13T02:13:54.117Z,100515.92
2018-08-13T02:16:23.066Z,100506.25
2018-08-13T02:18:52.462Z,100504.59
2018-08-13T02:21:26.955Z,100501.47
2018-08-13T02:23:59.771Z,100495.69
2018-08-13T02:26:28.755Z,100501.50
2018-08-13T02:28:57.831Z,100500.80
2018-08-13T02:31:26.724Z,100503.35
2018-08-13T02:33:55.632Z,100501.47
2018-08-13T02:36:24.581Z,100502.86
2018-08-13T02:38:53.501Z,100502.98
2018-08-13T02:41:22.514Z,100505.25
2018-08-13T02:43:51.570Z,100504.56
2018-08-13T02:46:20.474Z,100503.97
2018-08-13T02:48:49.363Z,100499.88
2018-08-13T02:51:18.352Z,100503.66
2018-08-13T02:53:47.295Z,100500.42
2018-08-13T02:56:16.259Z,100495.69
2018-08-13T02:58:45.209Z,100492.78
2018-08-13T03:01:14.187Z,100483.73
2018-08-13T03:03:43.077Z,100488.80
2018-08-13T03:06:12.115Z,100485.61
2018-08-13T03:08:41.064Z,100481.33
2018-08-13T03:11:10.050Z,100485.77
2018-08-13T03:13:39.020Z,100479.14
2018-08-13T03:16:07.991Z,100487.43
2018-08-13T03:18:36.933Z,100496.97
2018-08-13T03:21:05.898Z,100493.96
2018-08-13T03:23:34.929Z,100491.47
2018-08-13T03:26:03.930Z,100485.50
2018-08-13T03:28:32.941Z,100489.23
2018-08-13T03:31:01.869Z,100491.65
2018-08-13T03:33:31.330Z,100483.11
2018-08-13T03:36:00.315Z,100479.53
2018-08-13T03:38:29.237Z,100474.59
2018-08-13T03:40:58.187Z,100475.29
2018-08-13T03:43:32.587Z,100484.03
2018-08-13T03:46:06.990Z,100483.31
2018-08-13T03:48:35.917Z,100476.40
2018-08-13T03:51:04.861Z,100473.52
2018-08-13T03:53:33.731Z,100472.13
2018-08-13T03:56:02.818Z,100466.39
2018-08-13T03:58:31.775Z,100463.83
2018-08-13T04:01:00.764Z,100462.61
2018-08-13T04:03:29.744Z,100461.77
2018-08-13T04:05:58.764Z,100446.43
2018-08-13T04:08:27.859Z,100447.13
2018-08-13T04:10:56.887Z,100441.27
2018-08-13T04:13:25.887Z,100435.38
2018-08-13T04:15:55.188Z,100432.45
2018-08-13T04:18:24.576Z,100422.70
2018-08-13T04:20:53.506Z,100429.13
2018-08-13T04:23:23.055Z,100427.47
2018-08-13T04:25:52.054Z,100426.87
2018-08-13T04:28:21.049Z,100430.02
2018-08-13T04:30:49.962Z,100422.09
2018-08-13T04:33:18.994Z,100434.84
2018-08-13T04:35:48.880Z,100438.27
2018-08-13T04:38:17.806Z,100449.14
2018-08-13T04:40:52.482Z,100446.55
2018-08-13T04:43:21.325Z,100445.03
2018-08-13T04:45:50.330Z,100444.00
2018-08-13T04:48:19.350Z,100439.60
2018-08-13T04:50:48.276Z,100440.17
2018-08-13T04:53:17.228Z,100441.27
2018-08-13T04:55:46.166Z,100438.91
2018-08-13T04:58:15.180Z,100437.52
2018-08-13T05:00:44.144Z,100433.45
2018-08-13T05:03:13.129Z,100436.20
2018-08-13T05:05:42.090Z,100454.89
2018-08-13T05:08:11.101Z,100454.81
2018-08-13T05:10:40.056Z,100455.48
2018-08-13T05:13:09.076Z,100442.73
2018-08-13T05:15:39.200Z,100448.30
2018-08-13T05:20:52.051Z,100448.39
2018-08-13T05:23:20.968Z,100445.72
2018-08-13T05:25:49.968Z,100449.81
2018-08-13T05:28:18.917Z,100445.67
2018-08-13T05:30:47.856Z,100449.24
2018-08-13T05:33:16.797Z,100449.39
2018-08-13T05:35:45.701Z,100451.06
2018-08-13T05:38:14.671Z,100452.36
2018-08-13T05:40:43.667Z,100462.08
2018-08-13T05:43:12.660Z,100469.31
2018-08-13T05:45:41.611Z,100467.47
2018-08-13T05:48:10.572Z,100468.83
2018-08-13T05:50:39.540Z,100458.83
2018-08-13T05:53:08.579Z,100459.90
2018-08-13T05:55:37.530Z,100461.29
2018-08-13T05:58:06.481Z,100454.66
2018-08-13T06:00:35.458Z,100464.32
2018-08-13T06:03:04.474Z,100465.86
2018-08-13T06:05:33.385Z,100463.98
2018-08-13T06:08:02.331Z,100458.16
2018-08-13T06:10:31.285Z,100463.95
2018-08-13T06:13:00.248Z,100465.70
2018-08-13T06:15:29.250Z,100463.07
2018-08-13T06:17:58.262Z,100465.86
2018-08-13T06:20:27.133Z,100476.94
2018-08-13T06:22:56.101Z,100479.14
2018-08-13T06:25:25.033Z,100479.00
2018-08-13T06:27:53.932Z,100470.25
2018-08-13T06:30:22.995Z,100476.94
2018-08-13T06:32:51.973Z,100477.06
2018-08-13T06:35:20.914Z,100478.81
2018-08-13T06:37:49.832Z,100471.13
2018-08-13T06:40:18.767Z,100486.47
2018-08-13T06:42:47.756Z,100476.12
2018-08-13T06:45:16.712Z,100485.63
2018-08-13T06:47:45.698Z,100477.82
2018-08-13T06:50:15.064Z,100486.22
2018-08-13T06:52:44.233Z,100492.78
2018-08-13T06:55:13.209Z,100485.23
2018-08-13T06:57:42.150Z,100484.61
2018-08-13T07:00:13.138Z,100481.66
2018-08-13T07:02:42.337Z,100476.88
2018-08-13T07:05:11.956Z,100479.58
2018-08-13T07:07:41.592Z,100478.03
2018-08-13T07:10:14.586Z,100474.20
2018-08-13T07:12:44.588Z,100484.27
2018-08-13T07:15:14.184Z,100482.38
2018-08-13T07:17:43.279Z,100474.34
2018-08-13T07:20:14.952Z,100474.31
2018-08-13T07:22:44.258Z,100472.59
2018-08-13T07:25:13.260Z,100473.37
2018-08-13T07:27:42.705Z,100474.07
2018-08-13T07:30:13.051Z,100479.95
2018-08-13T07:32:42.448Z,100479.97
2018-08-13T07:35:11.444Z,100480.36
2018-08-13T07:37:40.361Z,100482.09
2018-08-13T07:40:13.650Z,100483.91
2018-08-13T07:42:42.716Z,100485.11
2018-08-13T07:45:11.752Z,100484.19
2018-08-13T07:47:40.860Z,100482.64
2018-08-13T07:50:12.623Z,100478.58
2018-08-13T07:52:41.738Z,100477.63
2018-08-13T07:55:11.522Z,100472.72
2018-08-13T07:57:40.888Z,100471.31
2018-08-13T08:00:14.348Z,100479.02
2018-08-13T08:02:43.382Z,100483.29
2018-08-13T08:05:13.397Z,100483.88
2018-08-13T08:07:42.466Z,100493.16
2018-08-13T08:10:23.285Z,100493.55
2018-08-13T08:12:53.248Z,100493.71
2018-08-13T08:15:22.904Z,100495.02
2018-08-13T08:17:52.043Z,100498.41
2018-08-13T08:20:22.191Z,100496.77
2018-08-13T08:22:52.079Z,100490.98
2018-08-13T08:25:22.250Z,100501.36
2018-08-13T08:27:51.295Z,100498.09
2018-08-13T08:30:20.310Z,100498.77
2018-08-13T08:32:49.302Z,100501.61
2018-08-13T08:35:18.704Z,100505.95
2018-08-13T08:37:47.855Z,100502.27
2018-08-13T08:40:19.322Z,100501.66
2018-08-13T08:42:49.067Z,100506.34
2018-08-13T08:45:20.660Z,100500.69
2018-08-13T08:47:50.968Z,100499.58
2018-08-13T08:50:19.945Z,100501.75
2018-08-13T08:52:48.947Z,100503.44
2018-08-13T08:55:18.624Z,100507.78
2018-08-13T08:57:48.804Z,100501.61
2018-08-13T09:00:21.784Z,100507.09
2018-08-13T09:02:50.784Z,100506.20
2018-08-13T09:05:19.863Z,100502.53
2018-08-13T09:07:49.088Z,100498.18
2018-08-13T09:10:21.901Z,100505.22
2018-08-13T09:12:50.971Z,100505.95
2018-08-13T09:15:19.899Z,100504.39
2018-08-13T09:18:00.153Z,100512.00
2018-08-13T09:20:40.285Z,100510.18
2018-08-13T09:23:20.591Z,100515.28
2018-08-13T09:26:00.861Z,100501.46
2018-08-13T09:28:41.069Z,100506.89
2018-08-13T09:31:24.543Z,100510.10
2018-08-13T09:34:04.675Z,100505.09
2018-08-13T09:36:33.671Z,100511.02
2018-08-13T09:39:02.612Z,100516.33
2018-08-13T09:41:31.649Z,100520.92
2018-08-13T09:44:00.596Z,100508.14
2018-08-13T09:46:29.573Z,100507.71
2018-08-13T09:48:58.619Z,100502.99
2018-08-13T09:51:27.593Z,100500.53
2018-08-13T09:53:57.008Z,100492.73
2018-08-13T09:56:25.957Z,100494.13
2018-08-13T09:58:54.933Z,100499.22
2018-08-13T10:01:23.991Z,100500.00
2018-08-13T10:03:53.141Z,100502.28
2018-08-13T10:06:22.075Z,100499.95
2018-08-13T10:08:50.956Z,100492.98
2018-08-13T10:11:19.985Z,100486.88
2018-08-13T10:13:48.887Z,100484.59
2018-08-13T10:16:17.831Z,100485.67
2018-08-13T10:18:47.400Z,100486.02
2018-08-13T10:21:16.330Z,100481.01
2018-08-13T10:23:45.273Z,100471.29
2018-08-13T10:26:14.339Z,100472.36
2018-08-13T10:28:48.806Z,100475.17
2018-08-13T10:31:23.399Z,100475.62
2018-08-13T10:33:52.307Z,100471.91
2018-08-13T10:36:21.412Z,100477.95
2018-08-13T10:38:50.365Z,100475.56
2018-08-13T10:41:19.613Z,100479.03
2018-08-13T10:43:48.540Z,100479.42
2018-08-13T10:46:17.853Z,100472.15
2018-08-13T10:48:46.735Z,100473.08
2018-08-13T10:51:15.669Z,100474.33
2018-08-13T10:53:44.635Z,100468.53
2018-08-13T10:56:13.666Z,100467.63
2018-08-13T10:58:42.531Z,100466.09
2018-08-13T11:01:12.008Z,100466.84
2018-08-13T11:03:41.090Z,100459.18
2018-08-13T11:06:10.057Z,100452.20
2018-08-13T11:08:39.403Z,100458.05
2018-08-13T11:11:08.300Z,100455.78
2018-08-13T11:13:37.222Z,100469.60
2018-08-13T11:16:06.199Z,100459.16
2018-08-13T11:18:35.110Z,100457.98
2018-08-13T11:21:04.043Z,100464.06
2018-08-13T11:23:32.963Z,100463.70
2018-08-13T11:26:02.159Z,100471.37
2018-08-13T11:28:31.101Z,100464.53
2018-08-13T11:31:06.100Z,100467.27
2018-08-13T11:33:34.997Z,100466.74
2018-08-13T11:36:04.040Z,100472.38
2018-08-13T11:38:33.269Z,100483.92
2018-08-13T11:41:02.260Z,100473.80
2018-08-13T11:43:31.208Z,100469.13
2018-08-13T11:46:00.103Z,100467.66
2018-08-13T11:48:29.019Z,100472.79
2018-08-13T11:50:57.978Z,100476.23
2018-08-13T11:53:27.032Z,100475.22
2018-08-13T11:55:55.979Z,100475.94
2018-08-13T11:58:24.892Z,100491.34
2018-08-13T12:00:53.933Z,100489.52
2018-08-13T12:03:22.877Z,100499.11
2018-08-13T12:05:51.789Z,100496.97
2018-08-13T12:08:20.804Z,100495.20
2018-08-13T12:10:50.145Z,100499.00
2018-08-13T12:13:19.113Z,100498.42
2018-08-13T12:15:48.041Z,100500.23
2018-08-13T12:18:17.039Z,100490.93
2018-08-13T12:20:46.033Z,100485.48
2018-08-13T12:23:15.012Z,100493.94
2018-08-13T12:25:43.953Z,100483.01
2018-08-13T12:28:12.898Z,100489.70
2018-08-13T12:30:41.876Z,100493.52
2018-08-13T12:33:10.802Z,100498.08
2018-08-13T12:35:39.700Z,100510.76
2018-08-13T12:38:08.641Z,100509.11
2018-08-13T12:40:37.644Z,100501.96
2018-08-13T12:43:06.722Z,100505.53
2018-08-13T12:45:36.928Z,100499.52
2018-08-13T12:48:06.434Z,100498.20
2018-08-13T12:50:35.342Z,100502.78
2018-08-13T12:53:04.272Z,100500.39
2018-08-13T12:55:33.298Z,100502.81
2018-08-13T12:58:02.282Z,100498.08
2018-08-13T13:00:31.388Z,100504.03
2018-08-13T13:03:00.365Z,100508.81
2018-08-13T13:05:29.436Z,100513.98
2018-08-13T13:07:58.558Z,100515.64
2018-08-13T13:10:27.735Z,100513.18
2018-08-13T13:12:57.072Z,100506.72
2018-08-13T13:15:26.114Z,100496.84
2018-08-13T13:17:55.198Z,100496.17
2018-08-13T13:20:24.257Z,100500.02
2018-08-13T13:22:53.480Z,100497.16
2018-08-13T13:25:23.083Z,100504.66
2018-08-13T13:27:52.076Z,100512.16
2018-08-13T13:30:21.106Z,100507.31
2018-08-13T13:32:50.342Z,100508.77
2018-08-13T13:35:19.245Z,100508.09
2018-08-13T13:37:48.244Z,100507.27
2018-08-13T13:40:17.925Z,100509.61
2018-08-13T13:42:47.167Z,100506.91
2018-08-13T13:45:17.316Z,100516.48
2018-08-13T13:47:46.427Z,100508.30
2018-08-13T13:50:17.755Z,100507.16
2018-08-13T13:52:46.847Z,100506.41
2018-08-13T13:55:21.373Z,100500.26
2018-08-13T13:57:50.495Z,100509.36
2018-08-13T14:00:20.771Z,100519.16
2018-08-13T14:02:51.109Z,100520.82
2018-08-13T14:05:20.509Z,100517.63
2018-08-13T14:07:49.504Z,100519.92
2018-08-13T14:10:22.263Z,100526.52
2018-08-13T14:12:51.407Z,100521.80
2018-08-13T14:15:21.701Z,100507.31
2018-08-13T14:17:52.172Z,100521.23
2018-08-13T14:20:21.478Z,100508.94
2018-08-13T14:22:50.546Z,100522.31
2018-08-13T14:25:19.491Z,100513.52
2018-08-13T14:27:48.757Z,100527.63
2018-08-13T14:30:21.681Z,100511.26
2018-08-13T14:32:50.720Z,100522.89
2018-08-13T14:35:20.733Z,100520.80
2018-08-13T14:37:49.819Z,100514.94
2018-08-13T14:40:18.792Z,100530.41
2018-08-13T14:42:47.779Z,100526.73
2018-08-13T14:45:18.371Z,100524.64
2018-08-13T14:47:48.965Z,100529.55
2018-08-13T14:50:20.223Z,100494.94
2018-08-13T14:52:49.831Z,100536.23
2018-08-13T14:55:20.454Z,100541.98
2018-08-13T14:57:49.839Z,100537.07
2018-08-13T15:00:24.458Z,100538.30
2018-08-13T15:02:55.553Z,100540.20
2018-08-13T15:05:24.897Z,100540.00
2018-08-13T15:07:53.823Z,100545.79
2018-08-13T15:10:24.573Z,100545.66
2018-08-13T15:12:53.648Z,100547.54
2018-08-13T15:15:22.884Z,100548.80
2018-08-13T15:17:52.103Z,100543.38
2018-08-13T15:20:25.117Z,100550.05
2018-08-13T15:22:54.420Z,100551.63
2018-08-13T15:25:23.382Z,100547.16
2018-08-13T15:27:52.488Z,100552.61
2018-08-13T15:30:23.938Z,100550.86
2018-08-13T15:32:53.796Z,100554.34
2018-08-13T15:35:24.220Z,100554.38
2018-08-13T15:37:53.214Z,100555.56
2018-08-13T15:40:22.328Z,100555.34
2018-08-13T15:42:51.252Z,100554.95
2018-08-13T15:45:21.890Z,100560.31
2018-08-13T15:47:51.176Z,100560.89
2018-08-13T15:50:22.245Z,100563.34
2018-08-13T15:52:51.831Z,100562.31
2018-08-13T15:55:21.736Z,100566.05
2018-08-13T15:57:50.883Z,100566.77
2018-08-13T16:00:24.102Z,100575.61
2018-08-13T16:02:53.436Z,100579.34
2018-08-13T16:05:22.852Z,100575.89
2018-08-13T16:07:52.402Z,100570.59
2018-08-13T16:10:21.346Z,100573.31
2018-08-13T16:12:50.778Z,100576.20
2018-08-13T16:15:19.841Z,100574.93
2018-08-13T16:17:51.707Z,100573.44
2018-08-13T16:20:22.929Z,100577.84
2018-08-13T16:22:52.360Z,100589.44
2018-08-13T16:25:21.580Z,100596.65
2018-08-13T16:28:07.101Z,100584.74
2018-08-13T16:30:36.531Z,100586.80
2018-08-13T16:33:05.989Z,100591.59
2018-08-13T16:35:38.833Z,100587.86
2018-08-13T16:38:08.804Z,100590.50
2018-08-13T16:40:42.059Z,100586.66
2018-08-13T16:43:12.939Z,100591.64
2018-08-13T16:45:42.181Z,100588.25
2018-08-13T16:48:13.509Z,100587.89
2018-08-13T16:50:42.601Z,100594.91
2018-08-13T16:53:12.285Z,100599.86
2018-08-13T16:55:42.374Z,100601.34
2018-08-13T16:58:11.293Z,100608.88
2018-08-13T17:00:40.545Z,100599.55
2018-08-13T17:03:10.605Z,100602.83
2018-08-13T17:05:39.789Z,100604.79
2018-08-13T17:08:09.105Z,100604.77
2018-08-13T17:10:38.573Z,100608.11
2018-08-13T17:13:07.970Z,100601.07
2018-08-13T17:15:37.768Z,100607.67
2018-08-13T17:18:06.661Z,100604.83
2018-08-13T17:20:40.020Z,100607.47
2018-08-13T17:23:11.019Z,100608.89
2018-08-13T17:25:44.594Z,100612.25
2018-08-13T17:28:13.743Z,100616.06
2018-08-13T17:30:43.057Z,100617.14
2018-08-13T17:33:12.260Z,100622.48
2018-08-13T17:35:41.351Z,100631.43
2018-08-13T17:38:11.596Z,100631.09
2018-08-13T17:40:40.590Z,100632.42
2018-08-13T17:43:10.787Z,100630.06
2018-08-13T17:45:39.505Z,100626.98
2018-08-13T17:48:10.039Z,100634.75
2018-08-13T17:50:41.454Z,100636.44
2018-08-13T17:53:11.296Z,100634.45
2018-08-13T17:55:41.808Z,100630.44
2018-08-13T17:58:12.255Z,100632.91
2018-08-13T18:00:41.222Z,100639.20
2018-08-13T18:03:10.389Z,100641.88
2018-08-13T18:05:39.738Z,100642.44
2018-08-13T18:08:08.985Z,100646.93
2018-08-13T18:10:38.432Z,100652.02
2018-08-13T18:13:09.296Z,100657.09
2018-08-13T18:15:38.256Z,100652.10
2018-08-13T18:18:07.720Z,100658.01
2018-08-13T18:20:37.226Z,100661.84
2018-08-13T18:23:07.957Z,100665.74
2018-08-13T18:25:36.966Z,100661.41
2018-08-13T18:28:05.906Z,100667.45
2018-08-13T18:30:35.160Z,100666.45
2018-08-13T18:33:05.292Z,100666.95
2018-08-13T18:35:34.593Z,100676.56
2018-08-13T18:38:04.046Z,100669.69
2018-08-13T18:40:35.351Z,100677.18
2018-08-13T18:43:04.341Z,100680.70
2018-08-13T18:45:33.280Z,100675.13
2018-08-13T18:48:03.027Z,100684.79
2018-08-13T18:50:32.077Z,100686.56
2018-08-13T18:53:01.550Z,100687.13
2018-08-13T18:55:31.036Z,100684.11
2018-08-13T18:58:00.567Z,100687.13
2018-08-13T19:00:30.458Z,100691.55
2018-08-13T19:03:06.626Z,100686.36
2018-08-13T19:05:36.282Z,100684.84
2018-08-13T19:08:05.720Z,100686.20
2018-08-13T19:10:34.989Z,100686.86
2018-08-13T19:13:05.368Z,100681.70
2018-08-13T19:15:34.495Z,100684.37
2018-08-13T19:18:03.510Z,100678.78
2018-08-13T19:20:32.832Z,100680.29
2018-08-13T19:23:02.044Z,100684.33
2018-08-13T19:25:31.014Z,100686.03
2018-08-13T19:28:00.013Z,100694.61
2018-08-13T19:30:30.304Z,100689.97
2018-08-13T19:32:59.254Z,100698.52
2018-08-13T19:35:28.312Z,100701.56
2018-08-13T19:37:57.245Z,100703.02
2018-08-13T19:40:26.833Z,100708.85
2018-08-13T19:42:55.901Z,100706.68
2018-08-13T19:45:25.040Z,100710.87
2018-08-13T19:47:54.476Z,100713.55
2018-08-13T19:50:23.483Z,100705.88
2018-08-13T19:52:52.612Z,100710.67
2018-08-13T19:55:22.232Z,100712.66
2018-08-13T19:57:51.593Z,100716.88
2018-08-13T20:00:22.713Z,100712.94
2018-08-13T20:02:52.351Z,100717.28
2018-08-13T20:05:22.912Z,100717.99
2018-08-13T20:07:52.405Z,100717.53
2018-08-13T20:10:21.391Z,100722.33
2018-08-13T20:12:50.516Z,100718.71
2018-08-13T20:15:19.736Z,100718.37
2018-08-13T20:17:49.891Z,100717.76
2018-08-13T20:20:20.684Z,100721.05
2018-08-13T20:22:50.316Z,100723.77
2018-08-13T20:25:20.961Z,100724.09
2018-08-13T20:27:50.887Z,100723.73
2018-08-13T20:30:21.347Z,100728.89
2018-08-13T20:32:51.472Z,100722.55
2018-08-13T20:35:20.568Z,100731.71
2018-08-13T20:37:49.866Z,100728.80
2018-08-13T20:40:20.514Z,100730.02
2018-08-13T20:42:49.912Z,100731.89
2018-08-13T20:45:20.356Z,100725.70
2018-08-13T20:47:49.422Z,100725.84
2018-08-13T20:50:20.281Z,100728.28
2018-08-13T20:52:50.624Z,100733.02
2018-08-13T20:55:22.233Z,100738.75
2018-08-13T20:57:53.282Z,100741.48
2018-08-13T21:00:25.078Z,100747.23
2018-08-13T21:02:54.062Z,100744.52
2018-08-13T21:05:23.079Z,100743.63
2018-08-13T21:07:52.136Z,100747.38
2018-08-13T21:10:22.987Z,100746.02
2018-08-13T21:12:52.348Z,100759.97
2018-08-13T21:15:21.391Z,100742.78
2018-08-13T21:17:50.485Z,100752.34
2018-08-13T21:20:29.207Z,100752.59
2018-08-13T21:22:58.433Z,100761.16
2018-08-13T21:25:28.055Z,100762.84
2018-08-13T21:27:58.928Z,100768.80
2018-08-13T21:30:29.369Z,100766.30
2018-08-13T21:32:58.815Z,100766.64
2018-08-13T21:35:36.049Z,100762.64
2018-08-13T21:38:05.927Z,100762.58
2018-08-13T21:40:35.611Z,100767.43
2018-08-13T21:43:05.031Z,100769.24
2018-08-13T21:45:34.843Z,100774.38
2018-08-13T21:48:03.791Z,100773.95
2018-08-13T21:50:32.856Z,100777.27
2018-08-13T21:53:01.807Z,100778.20
2018-08-13T21:55:30.828Z,100779.84
2018-08-13T21:57:59.847Z,100783.22
2018-08-13T22:00:31.133Z,100783.50
2018-08-13T22:03:01.977Z,100786.80
2018-08-13T22:05:31.039Z,100782.08
2018-08-13T22:08:00.152Z,100790.54
2018-08-13T22:10:29.067Z,100786.66
2018-08-13T22:12:58.123Z,100792.38
2018-08-13T22:15:29.085Z,100792.89
2018-08-13T22:18:01.323Z,100789.59
2018-08-13T22:20:31.166Z,100791.33
2018-08-13T22:23:00.996Z,100792.69
2018-08-13T22:25:39.566Z,100795.47
2018-08-13T22:28:09.808Z,100791.68
2018-08-13T22:30:38.935Z,100797.54
2018-08-13T22:33:08.571Z,100802.34
2018-08-13T22:35:37.528Z,100801.69
2018-08-13T22:38:06.697Z,100801.41
2018-08-13T22:40:35.871Z,100800.55
2018-08-13T22:43:04.970Z,100803.62
2018-08-13T22:45:34.149Z,100802.05
2018-08-13T22:48:03.279Z,100802.69
2018-08-13T22:50:33.511Z,100812.73
2018-08-13T22:53:02.546Z,100816.97
2018-08-13T22:55:31.507Z,100817.33
2018-08-13T22:58:00.446Z,100818.75
2018-08-13T23:00:29.427Z,100820.88
2018-08-13T23:02:58.359Z,100824.05
2018-08-13T23:05:27.923Z,100826.48
2018-08-13T23:07:56.841Z,100823.89
2018-08-13T23:10:26.209Z,100838.46
2018-08-13T23:12:56.297Z,100830.50
2018-08-13T23:15:25.409Z,100837.58
2018-08-13T23:17:54.657Z,100839.23
2018-08-13T23:20:25.527Z,100836.72
2018-08-13T23:22:56.459Z,100850.33
2018-08-13T23:25:25.555Z,100848.25
2018-08-13T23:27:55.680Z,100853.77
2018-08-13T23:30:24.759Z,100855.70
2018-08-13T23:32:54.610Z,100857.44
2018-08-13T23:35:24.832Z,100861.66
2018-08-13T23:37:54.117Z,100859.22
2018-08-13T23:40:23.438Z,100858.02
2018-08-13T23:42:52.631Z,100853.22
2018-08-13T23:45:24.453Z,100854.48
2018-08-13T23:47:53.449Z,100855.20
2018-08-13T23:50:23.488Z,100856.92
2018-08-13T23:52:53.822Z,100862.10
2018-08-13T23:55:24.653Z,100862.88
2018-08-13T23:57:53.749Z,100868.23
